logo dgac
Miércoles 22 de Mayo del 2019
Buscar por aerodromo o helipuerto
Ingrese nombre de aeródromo, localidad o designador OACI:
TAF: TAF SCSE 220415Z 2206/2306 09004KT CAVOK TX18/2218Z TN06/2211Z TEMPO 2210/2214 12004KT FEW020 BECMG 2216/2218 29010KT BECMG 2301/2303 09004KT
TAF del 22/05/2019 a las 04:15 UTC
Período de validez: desde el 22 a las 06:00 UTC hasta el 23 a las 06:00 UTC
Viento: dirección 090 grados, velocidad 4 nudos
Visibilidad: 10 km o más,
    sin nubes bajo los 5.000 pies o bajo del MSA (Mínimo de Seguridad del Aeródromo),
    sin cumulonimbus, y sin fenómenos de tiempo significativo en el aeródromo o alrededores
Temperatura máxima: 18ºC el 22 a las 18:00 UTC
Temperatura mínima: 6ºC el 22 a las 11:00 UTC
Se espera en forma temporal entre las 10:00 UTC del 22 y las 14:00 UTC del 22:
Viento: dirección 120 grados, velocidad 4 nudos
Nubes: Escasa nubosidad a 2000 pies sobre el nivel del aeródromo
Se espera un cambio entre las 16:00 UTC del 22 y las 18:00 UTC del 22, :
Viento: dirección 290 grados, velocidad 10 nudos
Se espera un cambio entre las 01:00 UTC del 23 y las 03:00 UTC del 23, :
Viento: dirección 090 grados, velocidad 4 nudos